< Cyclone 197910 1979 Season Cyclone 198002 >
Cyclone 197911 (KEVIN)
General InformationTrack Information on Google MapsList of All Images || ResourceGoogle EarthGE AnimationAtom FeedGeoJSON
Detalied Best Track (Time Zone = UTC)
Year Month Day Hour Lat. Long. Pressure (hPa) Wind (kt) Class Image Chart
1979 5 2 00 -4.2 94.7 1002 0 0 Image --
1979 5 2 06 -4.4 94.4 1002 0 0 Image --
1979 5 2 12 -4.5 93.9 1001 0 0 Image --
1979 5 2 18 -4.5 93.5 1001 0 0 Image --
1979 5 3 00 -4.5 93.1 1001 0 0 Image --
1979 5 3 06 -4.5 92.8 1000 0 0 Image --
1979 5 3 12 -4.6 92.5 999 0 0 Image --
1979 5 3 18 -4.6 92.3 999 0 0 Image --
1979 5 4 00 -4.7 92.1 998 0 0 Image --
1979 5 4 06 -4.8 91.6 998 0 0 Image --
1979 5 4 12 -5.1 90.8 997 0 0 Image --
1979 5 4 18 -5.2 90.0 997 0 0 Image --
1979 5 5 00 -5.3 89.0 996 0 0 Image --
1979 5 5 06 -5.6 88.1 995 0 0 Image --
1979 5 5 12 -5.9 87.1 995 0 0 Image --
1979 5 5 18 -6.1 86.2 994 0 0 Image --
1979 5 6 00 -6.4 85.2 993 0 0 Image --
1979 5 6 06 -6.7 84.5 993 0 0 Image --
1979 5 6 12 -6.9 83.8 992 0 0 Image --
1979 5 6 18 -7.0 83.0 991 0 0 Image --
1979 5 7 00 -7.2 82.2 990 0 0 Image --
1979 5 7 03 -7.5 81.8 990 0 0 Image --
1979 5 7 06 -7.9 81.9 989 0 0 Image --
1979 5 7 09 -8.0 82.4 989 0 0 Image --
1979 5 7 12 -8.0 82.8 989 0 0 Image --
1979 5 7 18 -7.9 83.6 988 0 0 Image --
1979 5 8 00 -7.9 84.4 987 0 0 Image --
1979 5 8 06 -7.9 85.2 986 0 0 Image --
1979 5 8 12 -8.1 86.0 986 0 0 Image --
1979 5 8 18 -8.4 87.2 987 0 0 Image --
1979 5 9 00 -8.6 89.0 988 0 0 Image --
1979 5 9 06 -8.7 90.2 988 0 0 Image --
1979 5 9 12 -8.9 91.0 989 0 0 Image --
1979 5 9 18 -9.2 92.0 989 0 0 Image --
1979 5 10 00 -9.8 92.9 990 0 0 Image --
1979 5 10 06 -10.3 93.1 990 0 0 Image --
1979 5 10 12 -10.9 93.1 990 0 0 Image --
1979 5 10 18 -11.1 92.8 990 0 0 Image --
1979 5 11 00 -11.6 92.3 990 0 0 Image --
1979 5 11 06 -11.8 91.5 991 0 0 Image --
1979 5 11 12 -11.9 90.0 992 0 0 Image --
1979 5 11 18 -11.9 89.0 993 0 0 Image --
1979 5 12 00 -11.9 88.0 994 0 0 Image --
< Cyclone 197910 1979 Season Cyclone 198002 >

Help